Terminal Aerodrome Forecast
Issued by NWS Wilmington, NC

Home | Current Version | Previous Version | Text Only | Print | Product List | Glossary On
Versions: 1 2 3 4 5 6 7 8 9 10 11 12 13 14 15 16 17 18
000
FTUS42 KILM 011739
TAFFLO
TAF
KFLO 011739Z 0118/0218 24007KT P6SM SCT025 SCT250
     FM020200 23005KT P6SM VCSH SCT045 BKN080
     FM020700 26004KT P6SM SCT060 BKN200=

USA.gov is the U.S. government's official web portal to all federal, state and local government web resources and services.